sensor_id;sensor_type;location;lat;lon;timestamp;pressure;altitude;pressure_sealevel;temperature
11424;BMP180;5768;51.476;7.210;2023-01-29T00:03:43;101558.00;;;2.60
11424;BMP180;5768;51.476;7.210;2023-01-29T00:08:52;101573.00;;;2.50
11424;BMP180;5768;51.476;7.210;2023-01-29T00:13:54;101544.00;;;2.50
11424;BMP180;5768;51.476;7.210;2023-01-29T00:18:59;101542.00;;;2.40
11424;BMP180;5768;51.476;7.210;2023-01-29T00:24:02;101541.00;;;2.50
11424;BMP180;5768;51.476;7.210;2023-01-29T00:29:04;101548.00;;;2.50
11424;BMP180;5768;51.476;7.210;2023-01-29T00:34:08;101539.00;;;2.40
11424;BMP180;5768;51.476;7.210;2023-01-29T00:39:10;101545.00;;;2.30
11424;BMP180;5768;51.476;7.210;2023-01-29T00:44:12;101546.00;;;2.30
11424;BMP180;5768;51.476;7.210;2023-01-29T00:49:33;101538.00;;;2.30
11424;BMP180;5768;51.476;7.210;2023-01-29T00:54:41;101540.00;;;2.30
11424;BMP180;5768;51.476;7.210;2023-01-29T00:59:44;101538.00;;;2.20
11424;BMP180;5768;51.476;7.210;2023-01-29T01:04:54;101554.00;;;2.20
11424;BMP180;5768;51.476;7.210;2023-01-29T01:09:56;101554.00;;;2.20
11424;BMP180;5768;51.476;7.210;2023-01-29T01:15:20;101561.00;;;2.20
11424;BMP180;5768;51.476;7.210;2023-01-29T01:20:25;101552.00;;;2.20
11424;BMP180;5768;51.476;7.210;2023-01-29T01:25:27;101548.00;;;2.20
11424;BMP180;5768;51.476;7.210;2023-01-29T01:30:30;101515.00;;;2.20
11424;BMP180;5768;51.476;7.210;2023-01-29T01:35:34;101498.00;;;2.30
11424;BMP180;5768;51.476;7.210;2023-01-29T01:40:36;101495.00;;;2.30
11424;BMP180;5768;51.476;7.210;2023-01-29T01:45:38;101502.00;;;2.30
11424;BMP180;5768;51.476;7.210;2023-01-29T01:50:48;101506.00;;;2.20
11424;BMP180;5768;51.476;7.210;2023-01-29T01:55:57;101505.00;;;2.20
11424;BMP180;5768;51.476;7.210;2023-01-29T02:01:02;101515.00;;;2.20
11424;BMP180;5768;51.476;7.210;2023-01-29T02:06:09;101509.00;;;2.20
11424;BMP180;5768;51.476;7.210;2023-01-29T02:11:30;101514.00;;;2.10
11424;BMP180;5768;51.476;7.210;2023-01-29T02:16:34;101522.00;;;2.10
11424;BMP180;5768;51.476;7.210;2023-01-29T02:22:04;101516.00;;;2.10
11424;BMP180;5768;51.476;7.210;2023-01-29T02:27:09;101523.00;;;2.00
11424;BMP180;5768;51.476;7.210;2023-01-29T02:32:25;101526.00;;;2.00
11424;BMP180;5768;51.476;7.210;2023-01-29T02:37:37;101526.00;;;2.00
11424;BMP180;5768;51.476;7.210;2023-01-29T02:42:52;101525.00;;;2.00
11424;BMP180;5768;51.476;7.210;2023-01-29T02:48:01;101533.00;;;1.90
11424;BMP180;5768;51.476;7.210;2023-01-29T02:53:09;101526.00;;;2.00
11424;BMP180;5768;51.476;7.210;2023-01-29T02:58:20;101525.00;;;2.00
11424;BMP180;5768;51.476;7.210;2023-01-29T03:03:35;101529.00;;;1.90
11424;BMP180;5768;51.476;7.210;2023-01-29T03:08:53;101519.00;;;1.90
11424;BMP180;5768;51.476;7.210;2023-01-29T03:14:02;101520.00;;;1.90
11424;BMP180;5768;51.476;7.210;2023-01-29T03:19:10;101528.00;;;1.90
11424;BMP180;5768;51.476;7.210;2023-01-29T03:24:18;101504.00;;;2.00
11424;BMP180;5768;51.476;7.210;2023-01-29T03:29:46;101522.00;;;2.10
11424;BMP180;5768;51.476;7.210;2023-01-29T03:35:13;101520.00;;;2.10
11424;BMP180;5768;51.476;7.210;2023-01-29T03:40:20;101526.00;;;2.10
11424;BMP180;5768;51.476;7.210;2023-01-29T03:45:33;101522.00;;;2.10
11424;BMP180;5768;51.476;7.210;2023-01-29T03:50:51;101507.00;;;2.10
11424;BMP180;5768;51.476;7.210;2023-01-29T03:56:05;101512.00;;;2.10
11424;BMP180;5768;51.476;7.210;2023-01-29T04:01:13;101507.00;;;2.20
11424;BMP180;5768;51.476;7.210;2023-01-29T04:06:23;101511.00;;;2.30
11424;BMP180;5768;51.476;7.210;2023-01-29T04:11:29;101513.00;;;2.40
11424;BMP180;5768;51.476;7.210;2023-01-29T04:16:36;101510.00;;;2.60
11424;BMP180;5768;51.476;7.210;2023-01-29T04:21:41;101499.00;;;2.60
11424;BMP180;5768;51.476;7.210;2023-01-29T04:26:59;101481.00;;;2.70
11424;BMP180;5768;51.476;7.210;2023-01-29T04:32:14;101479.00;;;2.80
11424;BMP180;5768;51.476;7.210;2023-01-29T04:37:31;101483.00;;;2.90
11424;BMP180;5768;51.476;7.210;2023-01-29T04:42:46;101491.00;;;3.00
11424;BMP180;5768;51.476;7.210;2023-01-29T04:48:01;101477.00;;;3.20
11424;BMP180;5768;51.476;7.210;2023-01-29T04:53:16;101473.00;;;3.20
11424;BMP180;5768;51.476;7.210;2023-01-29T04:58:26;101466.00;;;3.20
11424;BMP180;5768;51.476;7.210;2023-01-29T05:03:31;101471.00;;;3.30
11424;BMP180;5768;51.476;7.210;2023-01-29T05:08:38;101466.00;;;3.50
11424;BMP180;5768;51.476;7.210;2023-01-29T05:13:41;101450.00;;;3.60
11424;BMP180;5768;51.476;7.210;2023-01-29T05:18:44;101437.00;;;3.70
11424;BMP180;5768;51.476;7.210;2023-01-29T05:24:07;101431.00;;;3.70
11424;BMP180;5768;51.476;7.210;2023-01-29T05:29:09;101423.00;;;3.60
11424;BMP180;5768;51.476;7.210;2023-01-29T05:34:11;101416.00;;;3.50
11424;BMP180;5768;51.476;7.210;2023-01-29T05:39:15;101424.00;;;3.50
11424;BMP180;5768;51.476;7.210;2023-01-29T05:44:17;101433.00;;;3.50
11424;BMP180;5768;51.476;7.210;2023-01-29T05:49:20;101432.00;;;3.60
11424;BMP180;5768;51.476;7.210;2023-01-29T05:54:23;101443.00;;;3.70
11424;BMP180;5768;51.476;7.210;2023-01-29T05:59:25;101458.00;;;3.70
11424;BMP180;5768;51.476;7.210;2023-01-29T06:04:27;101453.00;;;3.70
11424;BMP180;5768;51.476;7.210;2023-01-29T06:09:31;101460.00;;;3.70
11424;BMP180;5768;51.476;7.210;2023-01-29T06:14:33;101478.00;;;3.70
11424;BMP180;5768;51.476;7.210;2023-01-29T06:19:35;101481.00;;;3.70
11424;BMP180;5768;51.476;7.210;2023-01-29T06:24:38;101487.00;;;3.70
11424;BMP180;5768;51.476;7.210;2023-01-29T06:29:41;101489.00;;;3.90
11424;BMP180;5768;51.476;7.210;2023-01-29T06:34:45;101490.00;;;4.10
11424;BMP180;5768;51.476;7.210;2023-01-29T06:39:48;101473.00;;;4.20
11424;BMP180;5768;51.476;7.210;2023-01-29T06:44:51;101473.00;;;4.30
11424;BMP180;5768;51.476;7.210;2023-01-29T06:49:53;101480.00;;;4.40
11424;BMP180;5768;51.476;7.210;2023-01-29T06:54:56;101482.00;;;4.40
11424;BMP180;5768;51.476;7.210;2023-01-29T06:59:58;101482.00;;;4.40
11424;BMP180;5768;51.476;7.210;2023-01-29T07:05:01;101474.00;;;4.40
11424;BMP180;5768;51.476;7.210;2023-01-29T07:10:05;101479.00;;;4.40
11424;BMP180;5768;51.476;7.210;2023-01-29T07:15:12;101465.00;;;4.50
11424;BMP180;5768;51.476;7.210;2023-01-29T07:20:15;101480.00;;;4.60
11424;BMP180;5768;51.476;7.210;2023-01-29T07:25:19;101478.00;;;4.70
11424;BMP180;5768;51.476;7.210;2023-01-29T07:30:21;101473.00;;;4.70
11424;BMP180;5768;51.476;7.210;2023-01-29T07:35:26;101475.00;;;4.80
11424;BMP180;5768;51.476;7.210;2023-01-29T07:40:29;101482.00;;;4.90
11424;BMP180;5768;51.476;7.210;2023-01-29T07:45:34;101475.00;;;4.80
11424;BMP180;5768;51.476;7.210;2023-01-29T07:50:37;101464.00;;;5.00
11424;BMP180;5768;51.476;7.210;2023-01-29T07:55:43;101465.00;;;5.00
11424;BMP180;5768;51.476;7.210;2023-01-29T08:00:45;101461.00;;;5.00
11424;BMP180;5768;51.476;7.210;2023-01-29T08:05:56;101464.00;;;4.80
11424;BMP180;5768;51.476;7.210;2023-01-29T08:11:03;101456.00;;;4.80
11424;BMP180;5768;51.476;7.210;2023-01-29T08:16:07;101454.00;;;4.90
11424;BMP180;5768;51.476;7.210;2023-01-29T08:21:09;101457.00;;;5.00
11424;BMP180;5768;51.476;7.210;2023-01-29T08:26:15;101457.00;;;4.90
11424;BMP180;5768;51.476;7.210;2023-01-29T08:31:19;101467.00;;;5.10
11424;BMP180;5768;51.476;7.210;2023-01-29T08:36:22;101458.00;;;5.10
11424;BMP180;5768;51.476;7.210;2023-01-29T08:41:25;101458.00;;;5.10
11424;BMP180;5768;51.476;7.210;2023-01-29T08:46:27;101433.00;;;5.00
11424;BMP180;5768;51.476;7.210;2023-01-29T08:51:30;101431.00;;;5.00
11424;BMP180;5768;51.476;7.210;2023-01-29T08:56:33;101430.00;;;5.20
11424;BMP180;5768;51.476;7.210;2023-01-29T09:01:35;101426.00;;;5.10
11424;BMP180;5768;51.476;7.210;2023-01-29T09:06:38;101431.00;;;5.20
11424;BMP180;5768;51.476;7.210;2023-01-29T09:11:41;101429.00;;;5.30
11424;BMP180;5768;51.476;7.210;2023-01-29T09:16:44;101413.00;;;5.40
11424;BMP180;5768;51.476;7.210;2023-01-29T09:21:46;101413.00;;;5.60
11424;BMP180;5768;51.476;7.210;2023-01-29T09:26:52;101406.00;;;5.60
11424;BMP180;5768;51.476;7.210;2023-01-29T09:31:55;101392.00;;;5.70
11424;BMP180;5768;51.476;7.210;2023-01-29T09:36:57;101393.00;;;5.70
11424;BMP180;5768;51.476;7.210;2023-01-29T09:42:12;101401.00;;;5.70
11424;BMP180;5768;51.476;7.210;2023-01-29T09:47:26;101380.00;;;5.80
11424;BMP180;5768;51.476;7.210;2023-01-29T09:52:34;101397.00;;;5.70
11424;BMP180;5768;51.476;7.210;2023-01-29T09:57:45;101390.00;;;5.40
11424;BMP180;5768;51.476;7.210;2023-01-29T10:03:14;101397.00;;;5.20
11424;BMP180;5768;51.476;7.210;2023-01-29T10:08:46;101398.00;;;5.20
11424;BMP180;5768;51.476;7.210;2023-01-29T10:14:10;101387.00;;;5.00
11424;BMP180;5768;51.476;7.210;2023-01-29T10:19:49;101401.00;;;5.20
11424;BMP180;5768;51.476;7.210;2023-01-29T10:24:59;101391.00;;;5.50
11424;BMP180;5768;51.476;7.210;2023-01-29T10:30:16;101394.00;;;5.50
11424;BMP180;5768;51.476;7.210;2023-01-29T10:35:27;101378.00;;;5.40
11424;BMP180;5768;51.476;7.210;2023-01-29T10:40:40;101363.00;;;5.50
11424;BMP180;5768;51.476;7.210;2023-01-29T10:45:59;101360.00;;;5.70
11424;BMP180;5768;51.476;7.210;2023-01-29T10:51:21;101348.00;;;6.10
11424;BMP180;5768;51.476;7.210;2023-01-29T10:56:49;101357.00;;;6.10
11424;BMP180;5768;51.476;7.210;2023-01-29T11:01:58;101340.00;;;6.20
11424;BMP180;5768;51.476;7.210;2023-01-29T11:07:00;101323.00;;;6.00
11424;BMP180;5768;51.476;7.210;2023-01-29T11:12:11;101319.00;;;6.20
11424;BMP180;5768;51.476;7.210;2023-01-29T11:17:17;101316.00;;;6.40
11424;BMP180;5768;51.476;7.210;2023-01-29T11:22:22;101307.00;;;6.20
11424;BMP180;5768;51.476;7.210;2023-01-29T11:27:31;101317.00;;;6.30
11424;BMP180;5768;51.476;7.210;2023-01-29T11:32:36;101305.00;;;6.30
11424;BMP180;5768;51.476;7.210;2023-01-29T11:37:41;101301.00;;;6.50
11424;BMP180;5768;51.476;7.210;2023-01-29T11:42:45;101293.00;;;6.50
11424;BMP180;5768;51.476;7.210;2023-01-29T11:47:52;101284.00;;;6.40
11424;BMP180;5768;51.476;7.210;2023-01-29T11:52:58;101280.00;;;6.50
11424;BMP180;5768;51.476;7.210;2023-01-29T11:58:06;101267.00;;;6.60
11424;BMP180;5768;51.476;7.210;2023-01-29T12:03:20;101254.00;;;6.60
11424;BMP180;5768;51.476;7.210;2023-01-29T12:08:24;101236.00;;;6.70
11424;BMP180;5768;51.476;7.210;2023-01-29T12:13:32;101234.00;;;6.60
11424;BMP180;5768;51.476;7.210;2023-01-29T12:18:41;101213.00;;;6.60
11424;BMP180;5768;51.476;7.210;2023-01-29T12:23:54;101190.00;;;6.60
11424;BMP180;5768;51.476;7.210;2023-01-29T12:29:16;101164.00;;;6.60
11424;BMP180;5768;51.476;7.210;2023-01-29T12:34:34;101157.00;;;6.60
11424;BMP180;5768;51.476;7.210;2023-01-29T12:39:41;101136.00;;;6.80
11424;BMP180;5768;51.476;7.210;2023-01-29T12:44:46;101128.00;;;6.70
11424;BMP180;5768;51.476;7.210;2023-01-29T12:49:55;101128.00;;;6.70
11424;BMP180;5768;51.476;7.210;2023-01-29T12:55:02;101119.00;;;6.50
11424;BMP180;5768;51.476;7.210;2023-01-29T13:00:13;101141.00;;;6.30
11424;BMP180;5768;51.476;7.210;2023-01-29T13:05:25;101137.00;;;6.40
11424;BMP180;5768;51.476;7.210;2023-01-29T13:10:41;101134.00;;;6.50
11424;BMP180;5768;51.476;7.210;2023-01-29T13:15:46;101124.00;;;6.60
11424;BMP180;5768;51.476;7.210;2023-01-29T13:20:54;101122.00;;;6.80
11424;BMP180;5768;51.476;7.210;2023-01-29T13:25:59;101126.00;;;6.70
11424;BMP180;5768;51.476;7.210;2023-01-29T13:31:27;101125.00;;;6.80
11424;BMP180;5768;51.476;7.210;2023-01-29T13:36:40;101120.00;;;6.70
11424;BMP180;5768;51.476;7.210;2023-01-29T13:41:49;101115.00;;;6.70
11424;BMP180;5768;51.476;7.210;2023-01-29T13:46:56;101124.00;;;6.70
11424;BMP180;5768;51.476;7.210;2023-01-29T13:52:20;101128.00;;;6.50
11424;BMP180;5768;51.476;7.210;2023-01-29T13:57:52;101115.00;;;6.40
11424;BMP180;5768;51.476;7.210;2023-01-29T14:08:52;101109.00;;;6.20
11424;BMP180;5768;51.476;7.210;2023-01-29T14:14:00;101096.00;;;6.20
11424;BMP180;5768;51.476;7.210;2023-01-29T14:19:19;101094.00;;;6.30
11424;BMP180;5768;51.476;7.210;2023-01-29T14:24:29;101081.00;;;6.20
11424;BMP180;5768;51.476;7.210;2023-01-29T14:29:37;101083.00;;;6.30
11424;BMP180;5768;51.476;7.210;2023-01-29T14:34:48;101089.00;;;6.40
11424;BMP180;5768;51.476;7.210;2023-01-29T14:39:57;101082.00;;;6.30
11424;BMP180;5768;51.476;7.210;2023-01-29T14:45:19;101076.00;;;6.20
11424;BMP180;5768;51.476;7.210;2023-01-29T14:50:47;101073.00;;;6.20
11424;BMP180;5768;51.476;7.210;2023-01-29T14:55:57;101076.00;;;6.30
11424;BMP180;5768;51.476;7.210;2023-01-29T15:01:05;101077.00;;;6.40
11424;BMP180;5768;51.476;7.210;2023-01-29T15:06:15;101059.00;;;6.20
11424;BMP180;5768;51.476;7.210;2023-01-29T15:11:31;101063.00;;;6.10
11424;BMP180;5768;51.476;7.210;2023-01-29T15:22:19;101057.00;;;6.10
11424;BMP180;5768;51.476;7.210;2023-01-29T15:27:25;101053.00;;;6.20
11424;BMP180;5768;51.476;7.210;2023-01-29T15:32:32;101035.00;;;6.10
11424;BMP180;5768;51.476;7.210;2023-01-29T15:37:36;101025.00;;;6.20
11424;BMP180;5768;51.476;7.210;2023-01-29T15:42:46;101030.00;;;6.20
11424;BMP180;5768;51.476;7.210;2023-01-29T15:47:51;101023.00;;;6.10
11424;BMP180;5768;51.476;7.210;2023-01-29T15:52:58;101036.00;;;6.10
11424;BMP180;5768;51.476;7.210;2023-01-29T15:58:06;101030.00;;;6.10
11424;BMP180;5768;51.476;7.210;2023-01-29T16:03:18;101020.00;;;6.20
11424;BMP180;5768;51.476;7.210;2023-01-29T16:08:25;101019.00;;;6.20
11424;BMP180;5768;51.476;7.210;2023-01-29T16:13:32;101011.00;;;6.00
11424;BMP180;5768;51.476;7.210;2023-01-29T16:18:36;101009.00;;;6.10
11424;BMP180;5768;51.476;7.210;2023-01-29T16:23:48;101002.00;;;6.10
11424;BMP180;5768;51.476;7.210;2023-01-29T16:28:53;100983.00;;;6.20
11424;BMP180;5768;51.476;7.210;2023-01-29T16:33:58;100990.00;;;6.10
11424;BMP180;5768;51.476;7.210;2023-01-29T16:39:17;100971.00;;;6.10
11424;BMP180;5768;51.476;7.210;2023-01-29T16:44:35;100967.00;;;6.20
11424;BMP180;5768;51.476;7.210;2023-01-29T16:49:49;100973.00;;;6.20
11424;BMP180;5768;51.476;7.210;2023-01-29T16:55:00;100967.00;;;6.20
11424;BMP180;5768;51.476;7.210;2023-01-29T17:00:16;100970.00;;;6.20
11424;BMP180;5768;51.476;7.210;2023-01-29T17:05:25;100952.00;;;6.10
11424;BMP180;5768;51.476;7.210;2023-01-29T17:10:30;100959.00;;;6.00
11424;BMP180;5768;51.476;7.210;2023-01-29T17:15:43;100955.00;;;6.10
11424;BMP180;5768;51.476;7.210;2023-01-29T17:20:46;100946.00;;;6.10
11424;BMP180;5768;51.476;7.210;2023-01-29T17:25:49;100949.00;;;6.20
11424;BMP180;5768;51.476;7.210;2023-01-29T17:31:00;100947.00;;;6.20
11424;BMP180;5768;51.476;7.210;2023-01-29T17:36:04;100937.00;;;6.30
11424;BMP180;5768;51.476;7.210;2023-01-29T17:41:12;100927.00;;;6.30
11424;BMP180;5768;51.476;7.210;2023-01-29T17:46:18;100936.00;;;6.30
11424;BMP180;5768;51.476;7.210;2023-01-29T17:51:21;100919.00;;;6.20
11424;BMP180;5768;51.476;7.210;2023-01-29T17:56:25;100935.00;;;6.30
11424;BMP180;5768;51.476;7.210;2023-01-29T18:01:29;100921.00;;;6.20
11424;BMP180;5768;51.476;7.210;2023-01-29T18:06:34;100910.00;;;6.10
11424;BMP180;5768;51.476;7.210;2023-01-29T18:11:37;100911.00;;;6.10
11424;BMP180;5768;51.476;7.210;2023-01-29T18:16:41;100902.00;;;6.20
11424;BMP180;5768;51.476;7.210;2023-01-29T18:21:44;100888.00;;;6.20
11424;BMP180;5768;51.476;7.210;2023-01-29T18:26:49;100868.00;;;6.30
11424;BMP180;5768;51.476;7.210;2023-01-29T18:31:53;100870.00;;;6.30
11424;BMP180;5768;51.476;7.210;2023-01-29T18:36:55;100875.00;;;6.20
11424;BMP180;5768;51.476;7.210;2023-01-29T18:42:02;100863.00;;;6.30
11424;BMP180;5768;51.476;7.210;2023-01-29T18:47:07;100854.00;;;6.20
11424;BMP180;5768;51.476;7.210;2023-01-29T18:52:09;100852.00;;;6.10
11424;BMP180;5768;51.476;7.210;2023-01-29T18:57:15;100851.00;;;6.10
11424;BMP180;5768;51.476;7.210;2023-01-29T19:02:19;100833.00;;;6.00
11424;BMP180;5768;51.476;7.210;2023-01-29T19:07:21;100844.00;;;6.10
11424;BMP180;5768;51.476;7.210;2023-01-29T19:12:23;100820.00;;;6.00
11424;BMP180;5768;51.476;7.210;2023-01-29T19:17:27;100819.00;;;6.00
11424;BMP180;5768;51.476;7.210;2023-01-29T19:22:29;100821.00;;;6.00
11424;BMP180;5768;51.476;7.210;2023-01-29T19:27:32;100820.00;;;6.00
11424;BMP180;5768;51.476;7.210;2023-01-29T19:32:36;100808.00;;;6.10
11424;BMP180;5768;51.476;7.210;2023-01-29T19:37:50;100789.00;;;6.10
11424;BMP180;5768;51.476;7.210;2023-01-29T19:43:02;100773.00;;;6.00
11424;BMP180;5768;51.476;7.210;2023-01-29T19:48:05;100764.00;;;5.90
11424;BMP180;5768;51.476;7.210;2023-01-29T19:53:14;100761.00;;;5.90
11424;BMP180;5768;51.476;7.210;2023-01-29T19:58:16;100735.00;;;5.90
11424;BMP180;5768;51.476;7.210;2023-01-29T20:03:20;100737.00;;;5.90
11424;BMP180;5768;51.476;7.210;2023-01-29T20:08:23;100723.00;;;6.00
11424;BMP180;5768;51.476;7.210;2023-01-29T20:13:28;100705.00;;;5.90
11424;BMP180;5768;51.476;7.210;2023-01-29T20:18:32;100693.00;;;6.00
11424;BMP180;5768;51.476;7.210;2023-01-29T20:23:35;100691.00;;;6.00
11424;BMP180;5768;51.476;7.210;2023-01-29T20:28:39;100677.00;;;6.10
11424;BMP180;5768;51.476;7.210;2023-01-29T20:33:43;100665.00;;;6.10
11424;BMP180;5768;51.476;7.210;2023-01-29T20:38:45;100659.00;;;6.10
11424;BMP180;5768;51.476;7.210;2023-01-29T20:43:51;100651.00;;;6.20
11424;BMP180;5768;51.476;7.210;2023-01-29T20:48:57;100654.00;;;6.10
11424;BMP180;5768;51.476;7.210;2023-01-29T20:54:04;100636.00;;;6.00
11424;BMP180;5768;51.476;7.210;2023-01-29T20:59:08;100621.00;;;6.10
11424;BMP180;5768;51.476;7.210;2023-01-29T21:04:11;100655.00;;;6.10
11424;BMP180;5768;51.476;7.210;2023-01-29T21:09:16;100654.00;;;6.10
11424;BMP180;5768;51.476;7.210;2023-01-29T21:14:20;100673.00;;;6.10
11424;BMP180;5768;51.476;7.210;2023-01-29T21:19:25;100642.00;;;6.00
11424;BMP180;5768;51.476;7.210;2023-01-29T21:24:27;100634.00;;;6.10
11424;BMP180;5768;51.476;7.210;2023-01-29T21:29:29;100599.00;;;6.10
11424;BMP180;5768;51.476;7.210;2023-01-29T21:34:33;100621.00;;;6.20
11424;BMP180;5768;51.476;7.210;2023-01-29T21:39:35;100643.00;;;6.20
11424;BMP180;5768;51.476;7.210;2023-01-29T21:44:37;100638.00;;;6.10
11424;BMP180;5768;51.476;7.210;2023-01-29T21:49:42;100643.00;;;6.10
11424;BMP180;5768;51.476;7.210;2023-01-29T21:54:44;100632.00;;;6.20
11424;BMP180;5768;51.476;7.210;2023-01-29T21:59:54;100665.00;;;6.20
11424;BMP180;5768;51.476;7.210;2023-01-29T22:05:07;100661.00;;;6.20
11424;BMP180;5768;51.476;7.210;2023-01-29T22:10:11;100638.00;;;6.10
11424;BMP180;5768;51.476;7.210;2023-01-29T22:15:14;100650.00;;;6.30
11424;BMP180;5768;51.476;7.210;2023-01-29T22:20:18;100663.00;;;6.30
11424;BMP180;5768;51.476;7.210;2023-01-29T22:25:20;100634.00;;;6.20
11424;BMP180;5768;51.476;7.210;2023-01-29T22:30:32;100626.00;;;6.10
11424;BMP180;5768;51.476;7.210;2023-01-29T22:35:54;100620.00;;;6.20
11424;BMP180;5768;51.476;7.210;2023-01-29T22:41:05;100622.00;;;6.30
11424;BMP180;5768;51.476;7.210;2023-01-29T22:46:10;100628.00;;;6.30
11424;BMP180;5768;51.476;7.210;2023-01-29T22:51:14;100602.00;;;6.30
11424;BMP180;5768;51.476;7.210;2023-01-29T22:56:18;100589.00;;;6.30
11424;BMP180;5768;51.476;7.210;2023-01-29T23:01:23;100560.00;;;6.40
11424;BMP180;5768;51.476;7.210;2023-01-29T23:06:26;100527.00;;;6.40
11424;BMP180;5768;51.476;7.210;2023-01-29T23:11:29;100495.00;;;6.50
11424;BMP180;5768;51.476;7.210;2023-01-29T23:16:31;100467.00;;;6.60
11424;BMP180;5768;51.476;7.210;2023-01-29T23:21:35;100438.00;;;6.70
11424;BMP180;5768;51.476;7.210;2023-01-29T23:26:37;100475.00;;;6.70
11424;BMP180;5768;51.476;7.210;2023-01-29T23:32:14;100486.00;;;6.70
11424;BMP180;5768;51.476;7.210;2023-01-29T23:37:18;100486.00;;;6.60
11424;BMP180;5768;51.476;7.210;2023-01-29T23:42:20;100456.00;;;6.70
11424;BMP180;5768;51.476;7.210;2023-01-29T23:47:22;100453.00;;;6.70
11424;BMP180;5768;51.476;7.210;2023-01-29T23:52:25;100450.00;;;6.60
11424;BMP180;5768;51.476;7.210;2023-01-29T23:57:28;100441.00;;;6.60
